Time,TemperatureF,DewpointF,PressureIn,WindDirection,WindDirectionDegrees,WindSpeedMPH,WindSpeedGustMPH,Humidity,HourlyPrecipIn,Conditions,Clouds,dailyrainin,SoftwareType,DateUTC
2013-09-19 00:06:00,47.1,43.7,29.79,SSE,153,0.0,0.0,88,0.00,,,0.00,Wunderground v.1.15,2013-09-18 23:06:00,
2013-09-19 00:11:00,47.1,43.7,29.79,SSE,153,0.0,0.0,88,0.00,,,0.00,Wunderground v.1.15,2013-09-18 23:11:00,
2013-09-19 00:21:00,47.1,43.7,29.80,SSE,153,0.0,0.0,88,0.00,,,0.00,Wunderground v.1.15,2013-09-18 23:21:00,
2013-09-19 00:26:00,47.2,43.5,29.80,South,170,0.0,0.0,87,0.00,,,0.00,Wunderground v.1.15,2013-09-18 23:26:00,
2013-09-19 00:36:00,47.6,43.9,29.80,NNW,338,1.0,1.0,87,0.00,,,0.00,Wunderground v.1.15,2013-09-18 23:36:00,
2013-09-19 00:41:00,47.7,44.0,29.80,WSW,240,1.0,1.0,87,0.00,,,0.00,Wunderground v.1.15,2013-09-18 23:41:00,
2013-09-19 00:51:00,48.0,44.6,29.81,WSW,256,2.0,2.0,88,0.00,,,0.00,Wunderground v.1.15,2013-09-18 23:51:00,
2013-09-19 00:56:00,48.2,44.8,29.80,WNW,295,1.0,2.0,88,0.00,,,0.00,Wunderground v.1.15,2013-09-18 23:56:00,
2013-09-19 01:06:00,48.1,44.7,29.79,NNW,339,0.0,1.0,88,0.00,,,0.00,Wunderground v.1.15,2013-09-19 00:06:00,
2013-09-19 01:11:00,47.9,44.5,29.79,NNW,340,0.0,0.0,88,0.00,,,0.00,Wunderground v.1.15,2013-09-19 00:11:00,
2013-09-19 01:16:00,47.8,44.4,29.79,NNW,340,0.0,0.0,88,0.00,,,0.00,Wunderground v.1.15,2013-09-19 00:16:00,
2013-09-19 01:26:00,47.6,44.2,29.79,NNW,340,0.0,0.0,88,0.00,,,0.00,Wunderground v.1.15,2013-09-19 00:26:00,
2013-09-19 01:31:00,47.6,44.2,29.79,NNE,25,0.0,0.0,88,0.00,,,0.00,Wunderground v.1.15,2013-09-19 00:31:00,
2013-09-19 01:36:00,47.6,43.9,29.79,SSW,194,0.0,0.0,87,0.00,,,0.00,Wunderground v.1.15,2013-09-19 00:36:00,
2013-09-19 01:42:00,47.8,44.1,29.79,WNW,300,0.0,1.0,87,0.00,,,0.00,Wunderground v.1.15,2013-09-19 00:42:00,
2013-09-19 01:57:00,48.2,44.5,29.79,West,281,1.0,1.0,87,0.00,,,0.00,Wunderground v.1.15,2013-09-19 00:57:00,
2013-09-19 02:06:00,48.1,44.4,29.78,NW,314,0.0,1.0,87,0.00,,,0.01,Wunderground v.1.15,2013-09-19 01:06:00,
2013-09-19 02:11:00,48.1,44.1,29.78,WNW,290,1.0,1.0,86,0.00,,,0.01,Wunderground v.1.15,2013-09-19 01:11:00,
2013-09-19 02:22:00,48.2,44.2,29.78,West,267,1.0,1.0,86,0.00,,,0.01,Wunderground v.1.15,2013-09-19 01:22:00,
2013-09-19 02:31:00,48.2,44.2,29.78,SW,229,1.0,2.0,86,0.00,,,0.01,Wunderground v.1.15,2013-09-19 01:31:00,
2013-09-19 02:37:00,48.3,44.3,29.78,WSW,238,1.0,2.0,86,0.00,,,0.01,Wunderground v.1.15,2013-09-19 01:37:00,
2013-09-19 02:46:00,48.4,44.4,29.77,West,274,1.0,2.0,86,0.00,,,0.01,Wunderground v.1.15,2013-09-19 01:46:00,
2013-09-19 02:51:00,48.4,44.7,29.77,WNW,302,0.0,1.0,87,0.00,,,0.01,Wunderground v.1.15,2013-09-19 01:51:00,
2013-09-19 02:56:00,48.3,44.3,29.77,SW,225,1.0,1.0,86,0.00,,,0.01,Wunderground v.1.15,2013-09-19 01:56:00,
2013-09-19 03:06:00,48.3,44.6,29.77,West,264,2.0,5.0,87,0.00,,,0.01,Wunderground v.1.15,2013-09-19 02:06:00,
2013-09-19 03:12:00,48.3,44.9,29.77,WSW,251,2.0,2.0,88,0.00,,,0.01,Wunderground v.1.15,2013-09-19 02:12:00,
2013-09-19 03:21:00,48.3,44.9,29.77,SE,142,1.0,1.0,88,0.00,,,0.01,Wunderground v.1.15,2013-09-19 02:21:00,
2013-09-19 03:27:00,48.3,44.9,29.77,West,259,0.0,1.0,88,0.00,,,0.01,Wunderground v.1.15,2013-09-19 02:27:00,
2013-09-19 03:32:00,48.2,44.8,29.77,SE,124,0.0,1.0,88,0.00,,,0.01,Wunderground v.1.15,2013-09-19 02:32:00,
2013-09-19 03:41:00,48.1,44.7,29.77,SE,137,0.0,0.0,88,0.00,,,0.01,Wunderground v.1.15,2013-09-19 02:41:00,
2013-09-19 03:51:00,48.0,44.3,29.77,SE,136,0.0,0.0,87,0.00,,,0.01,Wunderground v.1.15,2013-09-19 02:51:00,
2013-09-19 03:56:00,48.0,44.3,29.77,SW,224,0.0,0.0,87,0.00,,,0.01,Wunderground v.1.15,2013-09-19 02:56:00,
2013-09-19 04:06:00,47.8,43.8,29.77,SW,218,0.0,1.0,86,0.00,,,0.01,Wunderground v.1.15,2013-09-19 03:06:00,
2013-09-19 04:11:00,47.7,43.7,29.77,SW,226,0.0,0.0,86,0.00,,,0.01,Wunderground v.1.15,2013-09-19 03:11:00,
2013-09-19 04:21:00,47.6,43.6,29.76,SW,219,0.0,0.0,86,0.00,,,0.01,Wunderground v.1.15,2013-09-19 03:21:00,
2013-09-19 04:27:00,47.6,43.6,29.76,SW,231,0.0,1.0,86,0.00,,,0.01,Wunderground v.1.15,2013-09-19 03:27:00,
2013-09-19 04:37:00,47.6,43.6,29.75,SSW,211,0.0,0.0,86,0.00,,,0.01,Wunderground v.1.15,2013-09-19 03:37:00,
2013-09-19 04:46:00,47.5,43.5,29.75,SSW,211,0.0,0.0,86,0.00,,,0.01,Wunderground v.1.15,2013-09-19 03:46:00,
2013-09-19 04:52:00,47.5,43.2,29.75,SSW,209,0.0,0.0,85,0.00,,,0.01,Wunderground v.1.15,2013-09-19 03:52:00,
2013-09-19 05:02:00,47.4,43.1,29.75,SSE,159,0.0,0.0,85,0.00,,,0.01,Wunderground v.1.15,2013-09-19 04:02:00,
2013-09-19 05:06:00,47.4,43.1,29.75,SSE,156,0.0,0.0,85,0.00,,,0.01,Wunderground v.1.15,2013-09-19 04:06:00,
2013-09-19 05:11:00,47.5,43.2,29.75,SW,222,0.0,0.0,85,0.00,,,0.01,Wunderground v.1.15,2013-09-19 04:11:00,
2013-09-19 05:17:00,47.5,42.9,29.75,WSW,242,0.0,1.0,84,0.00,,,0.01,Wunderground v.1.15,2013-09-19 04:17:00,
2013-09-19 05:21:00,47.5,43.2,29.75,WSW,240,0.0,0.0,85,0.00,,,0.01,Wunderground v.1.15,2013-09-19 04:21:00,
2013-09-19 05:26:00,47.6,43.3,29.75,SW,221,1.0,1.0,85,0.00,,,0.01,Wunderground v.1.15,2013-09-19 04:26:00,
2013-09-19 05:36:00,47.7,43.7,29.75,SSE,166,1.0,1.0,86,0.00,,,0.01,Wunderground v.1.15,2013-09-19 04:36:00,
2013-09-19 05:41:00,47.7,44.0,29.74,SW,233,1.0,1.0,87,0.00,,,0.01,Wunderground v.1.15,2013-09-19 04:41:00,
2013-09-19 05:51:00,47.8,44.4,29.74,South,173,0.0,0.0,88,0.00,,,0.01,Wunderground v.1.15,2013-09-19 04:51:00,
2013-09-19 06:01:00,47.7,44.3,29.73,SW,236,0.0,0.0,88,0.00,,,0.01,Wunderground v.1.15,2013-09-19 05:01:00,
2013-09-19 06:06:00,47.7,44.3,29.72,SW,236,0.0,0.0,88,0.00,,,0.01,Wunderground v.1.15,2013-09-19 05:06:00,
2013-09-19 06:11:00,47.6,44.2,29.73,SW,236,0.0,0.0,88,0.00,,,0.01,Wunderground v.1.15,2013-09-19 05:11:00,
2013-09-19 06:21:00,47.5,44.1,29.73,SSW,212,0.0,0.0,88,0.00,,,0.01,Wunderground v.1.15,2013-09-19 05:21:00,
2013-09-19 06:26:00,47.5,44.1,29.73,SSW,212,0.0,0.0,88,0.00,,,0.01,Wunderground v.1.15,2013-09-19 05:26:00,
2013-09-19 06:36:00,47.2,43.8,29.72,SSW,211,0.0,0.0,88,0.00,,,0.01,Wunderground v.1.15,2013-09-19 05:36:00,
2013-09-19 06:41:00,47.2,43.8,29.71,SSW,211,0.0,0.0,88,0.00,,,0.02,Wunderground v.1.15,2013-09-19 05:41:00,
2013-09-19 06:51:00,47.2,43.5,29.70,SSW,211,0.0,0.0,87,0.00,,,0.02,Wunderground v.1.15,2013-09-19 05:51:00,
2013-09-19 06:56:00,47.1,43.4,29.70,SSW,211,0.0,0.0,87,0.00,,,0.02,Wunderground v.1.15,2013-09-19 05:56:00,
2013-09-19 07:06:00,47.0,43.3,29.69,SSW,211,0.0,0.0,87,0.00,,,0.02,Wunderground v.1.15,2013-09-19 06:06:00,
2013-09-19 07:11:00,46.9,42.9,29.70,SSW,211,0.0,0.0,86,0.00,,,0.02,Wunderground v.1.15,2013-09-19 06:11:00,
2013-09-19 07:21:00,46.8,42.5,29.68,South,173,0.0,0.0,85,0.04,,,0.03,Wunderground v.1.15,2013-09-19 06:21:00,
2013-09-19 07:26:00,46.8,42.5,29.67,South,173,0.0,0.0,85,0.04,,,0.03,Wunderground v.1.15,2013-09-19 06:26:00,
2013-09-19 07:36:00,46.6,42.3,29.65,SE,146,0.0,1.0,85,0.00,,,0.03,Wunderground v.1.15,2013-09-19 06:36:00,
2013-09-19 07:41:00,46.5,41.9,29.65,West,260,1.0,1.0,84,0.00,,,0.03,Wunderground v.1.15,2013-09-19 06:41:00,
2013-09-19 07:51:00,46.5,41.6,29.66,SE,139,0.0,0.0,83,0.00,,,0.03,Wunderground v.1.15,2013-09-19 06:51:00,
2013-09-19 07:56:00,46.7,41.8,29.66,SE,138,0.0,0.0,83,0.00,,,0.03,Wunderground v.1.15,2013-09-19 06:56:00,
2013-09-19 08:06:00,46.9,42.0,29.66,SE,143,0.0,0.0,83,0.00,,,0.03,Wunderground v.1.15,2013-09-19 07:06:00,
2013-09-19 08:11:00,47.2,42.3,29.66,NNW,333,1.0,1.0,83,0.00,,,0.03,Wunderground v.1.15,2013-09-19 07:11:00,
2013-09-19 08:21:00,47.6,43.3,29.65,SE,128,0.0,0.0,85,0.00,,,0.04,Wunderground v.1.15,2013-09-19 07:21:00,
2013-09-19 08:26:00,47.6,43.3,29.64,ENE,60,0.0,0.0,85,0.00,,,0.04,Wunderground v.1.15,2013-09-19 07:26:00,
2013-09-19 08:36:00,47.6,43.3,29.63,ESE,114,0.0,1.0,85,0.00,,,0.04,Wunderground v.1.15,2013-09-19 07:36:00,
2013-09-19 08:41:00,47.7,43.1,29.63,South,190,1.0,1.0,84,0.00,,,0.05,Wunderground v.1.15,2013-09-19 07:41:00,
2013-09-19 08:51:00,47.8,43.2,29.63,SE,124,0.0,1.0,84,0.35,,,0.07,Wunderground v.1.15,2013-09-19 07:51:00,
2013-09-19 08:56:00,48.0,43.1,29.63,North,11,1.0,1.0,83,0.11,,,0.07,Wunderground v.1.15,2013-09-19 07:56:00,
2013-09-19 09:06:00,48.3,43.4,29.63,SW,231,0.0,1.0,83,0.05,,,0.08,Wunderground v.1.15,2013-09-19 08:06:00,
2013-09-19 09:16:00,48.4,43.2,29.61,NNE,28,0.0,2.0,82,0.05,,,0.08,Wunderground v.1.15,2013-09-19 08:16:00,
2013-09-19 09:21:00,48.3,43.4,29.62,East,91,0.0,0.0,83,0.00,,,0.08,Wunderground v.1.15,2013-09-19 08:21:00,
2013-09-19 09:26:00,48.2,43.0,29.62,SE,138,0.0,1.0,82,0.00,,,0.09,Wunderground v.1.15,2013-09-19 08:26:00,
2013-09-19 09:36:00,48.3,42.7,29.61,SSW,204,0.0,0.0,81,0.00,,,0.09,Wunderground v.1.15,2013-09-19 08:36:00,
2013-09-19 09:41:00,48.4,42.5,29.61,NNW,342,1.0,1.0,80,0.00,,,0.09,Wunderground v.1.15,2013-09-19 08:41:00,
2013-09-19 09:51:00,48.7,43.1,29.60,SSW,207,1.0,1.0,81,0.00,,,0.09,Wunderground v.1.15,2013-09-19 08:51:00,
2013-09-19 09:56:00,48.7,42.8,29.60,SSE,148,1.0,1.0,80,0.00,,,0.09,Wunderground v.1.15,2013-09-19 08:56:00,
2013-09-19 10:06:00,48.8,42.2,29.60,SE,136,0.0,2.0,78,0.00,,,0.09,Wunderground v.1.15,2013-09-19 09:06:00,
2013-09-19 10:11:00,49.0,42.4,29.59,SSE,153,1.0,1.0,78,0.00,,,0.10,Wunderground v.1.15,2013-09-19 09:11:00,
2013-09-19 10:21:00,49.2,42.6,29.59,ENE,68,0.0,0.0,78,0.00,,,0.10,Wunderground v.1.15,2013-09-19 09:21:00,
2013-09-19 10:31:00,49.2,43.0,29.58,West,271,1.0,1.0,79,0.00,,,0.10,Wunderground v.1.15,2013-09-19 09:31:00,
2013-09-19 10:36:00,49.1,42.9,29.58,NW,319,1.0,2.0,79,0.00,,,0.10,Wunderground v.1.15,2013-09-19 09:36:00,
2013-09-19 10:41:00,49.2,42.6,29.58,NNW,341,1.0,1.0,78,0.00,,,0.10,Wunderground v.1.15,2013-09-19 09:41:00,
2013-09-19 10:51:00,49.6,43.0,29.58,WNW,293,1.0,1.0,78,0.00,,,0.11,Wunderground v.1.15,2013-09-19 09:51:00,
2013-09-19 10:56:00,49.7,43.5,29.58,SW,214,1.0,1.0,79,0.00,,,0.11,Wunderground v.1.15,2013-09-19 09:56:00,
2013-09-19 11:06:00,50.1,44.2,29.57,SE,124,1.0,5.0,80,0.00,,,0.11,Wunderground v.1.15,2013-09-19 10:06:00,
2013-09-19 11:11:00,50.3,44.7,29.57,SE,142,1.0,2.0,81,0.00,,,0.11,Wunderground v.1.15,2013-09-19 10:11:00,
2013-09-19 11:21:00,50.7,45.4,29.57,SSW,195,1.0,1.0,82,0.00,,,0.11,Wunderground v.1.15,2013-09-19 10:21:00,
2013-09-19 11:26:00,50.9,45.9,29.57,SSW,194,1.0,1.0,83,0.00,,,0.11,Wunderground v.1.15,2013-09-19 10:26:00,
2013-09-19 11:36:00,51.5,45.9,29.56,SE,146,0.0,1.0,81,0.00,,,0.11,Wunderground v.1.15,2013-09-19 10:36:00,
2013-09-19 11:46:00,51.5,47.1,29.56,SSE,167,0.0,0.0,85,0.00,,,0.11,Wunderground v.1.15,2013-09-19 10:46:00,
2013-09-19 11:51:00,51.2,46.5,29.56,SSE,152,0.0,0.0,84,0.00,,,0.11,Wunderground v.1.15,2013-09-19 10:51:00,
2013-09-19 11:56:00,51.0,46.3,29.57,SSE,155,0.0,0.0,84,0.00,,,0.11,Wunderground v.1.15,2013-09-19 10:56:00,
2013-09-19 12:06:00,50.9,45.6,29.56,SE,146,0.0,1.0,82,0.00,,,0.11,Wunderground v.1.15,2013-09-19 11:06:00,
2013-09-19 12:11:00,50.9,45.6,29.56,SE,146,1.0,1.0,82,0.00,,,0.11,Wunderground v.1.15,2013-09-19 11:11:00,
2013-09-19 12:21:00,51.3,43.6,29.56,SW,229,0.0,3.0,75,0.00,,,0.12,Wunderground v.1.15,2013-09-19 11:21:00,
2013-09-19 12:26:00,52.2,42.0,29.56,SSW,193,2.0,3.0,68,0.00,,,0.12,Wunderground v.1.15,2013-09-19 11:26:00,
2013-09-19 12:36:00,53.5,46.1,29.56,South,181,5.0,5.0,76,0.00,,,0.12,Wunderground v.1.15,2013-09-19 11:36:00,
2013-09-19 12:41:00,53.8,47.4,29.56,SW,215,5.0,10.0,79,0.00,,,0.12,Wunderground v.1.15,2013-09-19 11:41:00,
2013-09-19 12:51:00,54.2,48.8,29.57,SSW,205,5.0,5.0,82,0.00,,,0.12,Wunderground v.1.15,2013-09-19 11:51:00,
2013-09-19 12:56:00,54.4,50.0,29.57,West,274,6.0,8.0,85,0.00,,,0.12,Wunderground v.1.15,2013-09-19 11:56:00,
2013-09-19 13:01:00,54.6,50.5,29.57,South,191,5.0,5.0,86,0.00,,,0.12,Wunderground v.1.15,2013-09-19 12:01:00,
2013-09-19 13:06:00,54.6,50.8,29.58,West,271,5.0,5.0,87,0.00,,,0.12,Wunderground v.1.15,2013-09-19 12:06:00,
2013-09-19 13:16:00,54.6,50.8,29.58,NW,305,4.0,5.0,87,0.00,,,0.12,Wunderground v.1.15,2013-09-19 12:16:00,
2013-09-19 13:21:00,54.6,50.8,29.58,NW,305,3.0,4.0,87,0.00,,,0.12,Wunderground v.1.15,2013-09-19 12:21:00,
2013-09-19 13:26:00,54.7,50.9,29.59,WSW,248,3.0,4.0,87,0.00,,,0.12,Wunderground v.1.15,2013-09-19 12:26:00,
2013-09-19 13:36:00,54.8,51.3,29.59,NNE,21,5.0,8.0,88,0.00,,,0.12,Wunderground v.1.15,2013-09-19 12:36:00,
2013-09-19 13:41:00,55.0,51.5,29.59,West,276,6.0,6.0,88,0.00,,,0.12,Wunderground v.1.15,2013-09-19 12:41:00,
2013-09-19 13:46:00,55.2,51.7,29.58,NNE,29,5.0,6.0,88,0.00,,,0.12,Wunderground v.1.15,2013-09-19 12:46:00,
2013-09-19 13:51:00,55.4,51.9,29.59,SW,226,6.0,6.0,88,0.00,,,0.12,Wunderground v.1.15,2013-09-19 12:51:00,
2013-09-19 13:56:00,55.5,52.0,29.59,SSW,203,5.0,9.0,88,0.00,,,0.12,Wunderground v.1.15,2013-09-19 12:56:00,
2013-09-19 14:06:00,55.7,52.2,29.60,SW,220,4.0,5.0,88,0.00,,,0.12,Wunderground v.1.15,2013-09-19 13:06:00,
2013-09-19 14:11:00,55.7,52.2,29.60,SW,232,3.0,7.0,88,0.00,,,0.12,Wunderground v.1.15,2013-09-19 13:11:00,
2013-09-19 14:21:00,55.7,51.9,29.60,SW,233,4.0,4.0,87,0.00,,,0.12,Wunderground v.1.15,2013-09-19 13:21:00,
2013-09-19 14:26:00,55.7,51.9,29.60,WSW,238,5.0,5.0,87,0.00,,,0.12,Wunderground v.1.15,2013-09-19 13:26:00,
2013-09-19 14:36:00,55.9,52.1,29.60,WSW,238,4.0,5.0,87,0.00,,,0.12,Wunderground v.1.15,2013-09-19 13:36:00,
2013-09-19 14:41:00,56.1,52.3,29.60,NW,311,3.0,4.0,87,0.00,,,0.12,Wunderground v.1.15,2013-09-19 13:41:00,
2013-09-19 14:51:00,56.3,52.2,29.60,SSW,208,3.0,5.0,86,0.00,,,0.12,Wunderground v.1.15,2013-09-19 13:51:00,
2013-09-19 15:01:00,56.5,52.0,29.60,WSW,249,5.0,7.0,85,0.00,,,0.12,Wunderground v.1.15,2013-09-19 14:01:00,
2013-09-19 15:06:00,56.6,52.1,29.60,WNW,296,5.0,7.0,85,0.00,,,0.12,Wunderground v.1.15,2013-09-19 14:06:00,
2013-09-19 15:11:00,56.6,52.5,29.60,WSW,240,4.0,9.0,86,0.00,,,0.12,Wunderground v.1.15,2013-09-19 14:11:00,
2013-09-19 15:21:00,56.5,52.0,29.60,NNE,26,4.0,6.0,85,0.00,,,0.12,Wunderground v.1.15,2013-09-19 14:21:00,
2013-09-19 15:26:00,56.5,51.7,29.61,West,262,5.0,6.0,84,0.00,,,0.12,Wunderground v.1.15,2013-09-19 14:26:00,
2013-09-19 15:36:00,56.7,51.9,29.60,WNW,283,4.0,5.0,84,0.00,,,0.12,Wunderground v.1.15,2013-09-19 14:36:00,
2013-09-19 15:46:00,57.0,51.2,29.60,ENE,74,6.0,6.0,81,0.00,,,0.12,Wunderground v.1.15,2013-09-19 14:46:00,
2013-09-19 15:51:00,57.1,51.3,29.60,NW,304,5.0,5.0,81,0.00,,,0.12,Wunderground v.1.15,2013-09-19 14:51:00,
2013-09-19 15:56:00,57.2,51.1,29.60,WSW,256,5.0,10.0,80,0.00,,,0.12,Wunderground v.1.15,2013-09-19 14:56:00,
2013-09-19 16:06:00,57.3,51.2,29.60,SW,235,6.0,9.0,80,0.00,,,0.12,Wunderground v.1.15,2013-09-19 15:06:00,
2013-09-19 16:16:00,57.6,51.1,29.60,WNW,287,6.0,10.0,79,0.00,,,0.12,Wunderground v.1.15,2013-09-19 15:16:00,
2013-09-19 16:21:00,57.9,51.8,29.61,NW,315,5.0,5.0,80,0.00,,,0.12,Wunderground v.1.15,2013-09-19 15:21:00,
2013-09-19 16:26:00,58.1,51.6,29.61,West,269,6.0,6.0,79,0.00,,,0.12,Wunderground v.1.15,2013-09-19 15:26:00,
2013-09-19 16:36:00,58.0,51.5,29.61,SW,232,6.0,15.0,79,0.00,,,0.12,Wunderground v.1.15,2013-09-19 15:36:00,
2013-09-19 16:41:00,57.9,51.8,29.61,SW,229,6.0,9.0,80,0.00,,,0.12,Wunderground v.1.15,2013-09-19 15:41:00,
2013-09-19 16:51:00,57.7,51.6,29.62,NW,316,6.0,6.0,80,0.00,,,0.12,Wunderground v.1.15,2013-09-19 15:51:00,
2013-09-19 16:56:00,57.6,51.5,29.62,WSW,248,7.0,7.0,80,0.00,,,0.12,Wunderground v.1.15,2013-09-19 15:56:00,
2013-09-19 17:06:00,57.4,51.3,29.62,SSW,208,6.0,7.0,80,0.00,,,0.12,Wunderground v.1.15,2013-09-19 16:06:00,
2013-09-19 17:11:00,57.3,51.2,29.62,WSW,242,6.0,6.0,80,0.00,,,0.12,Wunderground v.1.15,2013-09-19 16:11:00,
2013-09-19 17:21:00,57.0,51.2,29.62,SSE,159,6.0,6.0,81,0.00,,,0.12,Wunderground v.1.15,2013-09-19 16:21:00,
2013-09-19 17:31:00,56.6,51.5,29.63,WNW,282,7.0,7.0,83,0.00,,,0.12,Wunderground v.1.15,2013-09-19 16:31:00,
2013-09-19 17:36:00,56.2,51.7,29.62,WSW,247,7.0,7.0,85,0.00,,,0.12,Wunderground v.1.15,2013-09-19 16:36:00,
2013-09-19 17:41:00,56.0,51.6,29.63,WSW,246,6.0,6.0,85,0.00,,,0.12,Wunderground v.1.15,2013-09-19 16:41:00,
2013-09-19 17:51:00,55.7,51.6,29.64,West,269,6.0,8.0,86,0.00,,,0.12,Wunderground v.1.15,2013-09-19 16:51:00,
2013-09-19 17:56:00,55.4,51.3,29.65,SW,225,8.0,9.0,86,0.00,,,0.12,Wunderground v.1.15,2013-09-19 16:56:00,
2013-09-19 18:06:00,54.8,51.0,29.64,NNW,340,8.0,8.0,87,0.00,,,0.12,Wunderground v.1.15,2013-09-19 17:06:00,
2013-09-19 18:11:00,54.9,51.1,29.65,WSW,249,7.0,7.0,87,0.00,,,0.12,Wunderground v.1.15,2013-09-19 17:11:00,
2013-09-19 18:21:00,55.1,51.3,29.65,WSW,252,7.0,7.0,87,0.00,,,0.12,Wunderground v.1.15,2013-09-19 17:21:00,
2013-09-19 18:26:00,54.9,51.1,29.65,SSW,208,7.0,7.0,87,0.00,,,0.12,Wunderground v.1.15,2013-09-19 17:26:00,
2013-09-19 18:36:00,54.8,51.0,29.66,West,267,6.0,11.0,87,0.00,,,0.12,Wunderground v.1.15,2013-09-19 17:36:00,
2013-09-19 18:41:00,54.8,51.0,29.66,SW,216,6.0,7.0,87,0.00,,,0.12,Wunderground v.1.15,2013-09-19 17:41:00,
2013-09-19 18:46:00,54.8,51.0,29.66,SW,222,6.0,7.0,87,0.00,,,0.12,Wunderground v.1.15,2013-09-19 17:46:00,
2013-09-19 18:51:00,54.9,51.1,29.66,WSW,257,6.0,9.0,87,0.00,,,0.12,Wunderground v.1.15,2013-09-19 17:51:00,
2013-09-19 18:56:00,55.0,51.2,29.66,West,276,7.0,9.0,87,0.00,,,0.12,Wunderground v.1.15,2013-09-19 17:56:00,
2013-09-19 19:06:00,54.9,51.1,29.67,SSW,196,4.0,6.0,87,0.00,,,0.12,Wunderground v.1.15,2013-09-19 18:06:00,
2013-09-19 19:11:00,54.9,51.1,29.67,WSW,257,5.0,5.0,87,0.00,,,0.12,Wunderground v.1.15,2013-09-19 18:11:00,
2013-09-19 19:21:00,54.9,51.1,29.68,South,177,6.0,6.0,87,0.00,,,0.12,Wunderground v.1.15,2013-09-19 18:21:00,
2013-09-19 19:26:00,54.7,50.9,29.69,SSW,210,5.0,11.0,87,0.00,,,0.12,Wunderground v.1.15,2013-09-19 18:26:00,
2013-09-19 19:41:00,54.7,50.9,29.69,NW,326,5.0,6.0,87,0.00,,,0.12,Wunderground v.1.15,2013-09-19 18:41:00,
2013-09-19 19:51:00,54.7,50.9,29.69,WSW,253,5.0,11.0,87,0.00,,,0.12,Wunderground v.1.15,2013-09-19 18:51:00,
2013-09-19 19:56:00,54.7,50.9,29.70,WNW,302,5.0,11.0,87,0.00,,,0.12,Wunderground v.1.15,2013-09-19 18:56:00,
2013-09-19 20:06:00,54.2,50.7,29.70,NW,305,6.0,8.0,88,0.00,,,0.12,Wunderground v.1.15,2013-09-19 19:06:00,
2013-09-19 20:11:00,54.0,50.5,29.70,NNW,331,5.0,5.0,88,0.00,,,0.12,Wunderground v.1.15,2013-09-19 19:11:00,
2013-09-19 20:21:00,53.8,50.3,29.71,West,274,5.0,5.0,88,0.00,,,0.12,Wunderground v.1.15,2013-09-19 19:21:00,
2013-09-19 20:26:00,53.8,50.3,29.72,South,184,5.0,5.0,88,0.00,,,0.12,Wunderground v.1.15,2013-09-19 19:26:00,
2013-09-19 20:36:00,53.7,49.9,29.72,West,278,6.0,6.0,87,0.00,,,0.12,Wunderground v.1.15,2013-09-19 19:36:00,
2013-09-19 20:46:00,53.7,49.9,29.73,WSW,239,5.0,7.0,87,0.00,,,0.12,Wunderground v.1.15,2013-09-19 19:46:00,
2013-09-19 20:51:00,53.7,49.9,29.73,North,1,6.0,6.0,87,0.00,,,0.12,Wunderground v.1.15,2013-09-19 19:51:00,
2013-09-19 20:56:00,53.6,49.8,29.73,WSW,247,5.0,8.0,87,0.00,,,0.12,Wunderground v.1.15,2013-09-19 19:56:00,
2013-09-19 21:06:00,53.4,49.3,29.74,West,262,6.0,7.0,86,0.00,,,0.12,Wunderground v.1.15,2013-09-19 20:06:00,
2013-09-19 21:11:00,53.4,49.0,29.74,WSW,238,5.0,7.0,85,0.00,,,0.12,Wunderground v.1.15,2013-09-19 20:11:00,
2013-09-19 21:21:00,53.1,47.7,29.74,West,262,5.0,5.0,82,0.00,,,0.13,Wunderground v.1.15,2013-09-19 20:21:00,
2013-09-19 21:26:00,53.0,47.3,29.74,SW,225,4.0,5.0,81,0.00,,,0.13,Wunderground v.1.15,2013-09-19 20:26:00,
2013-09-19 21:36:00,52.9,46.6,29.74,NW,307,4.0,8.0,79,0.00,,,0.13,Wunderground v.1.15,2013-09-19 20:36:00,
2013-09-19 21:41:00,52.9,46.2,29.75,WSW,253,5.0,8.0,78,0.00,,,0.13,Wunderground v.1.15,2013-09-19 20:41:00,
2013-09-19 21:51:00,52.8,45.4,29.75,West,260,4.0,4.0,76,0.06,,,0.14,Wunderground v.1.15,2013-09-19 20:51:00,
2013-09-19 22:01:00,52.8,45.1,29.75,WSW,247,4.0,4.0,75,0.00,,,0.14,Wunderground v.1.15,2013-09-19 21:01:00,
2013-09-19 22:06:00,52.8,44.7,29.75,WSW,243,3.0,7.0,74,0.00,,,0.15,Wunderground v.1.15,2013-09-19 21:06:00,
2013-09-19 22:11:00,52.8,44.7,29.75,West,274,3.0,6.0,74,0.00,,,0.15,Wunderground v.1.15,2013-09-19 21:11:00,
2013-09-19 22:21:00,52.9,45.2,29.75,WSW,239,4.0,11.0,75,0.00,,,0.15,Wunderground v.1.15,2013-09-19 21:21:00,
2013-09-19 22:26:00,52.9,45.2,29.75,West,271,5.0,11.0,75,0.00,,,0.15,Wunderground v.1.15,2013-09-19 21:26:00,
2013-09-19 22:36:00,53.0,45.6,29.76,SW,215,5.0,5.0,76,0.00,,,0.15,Wunderground v.1.15,2013-09-19 21:36:00,
2013-09-19 22:41:00,53.0,45.3,29.77,SW,214,4.0,4.0,75,0.00,,,0.16,Wunderground v.1.15,2013-09-19 21:41:00,
2013-09-19 22:51:00,52.8,44.7,29.77,WSW,255,5.0,5.0,74,0.00,,,0.16,Wunderground v.1.15,2013-09-19 21:51:00,
2013-09-19 22:56:00,52.8,44.7,29.77,WSW,252,4.0,5.0,74,0.00,,,0.16,Wunderground v.1.15,2013-09-19 21:56:00,
2013-09-19 23:06:00,52.8,44.7,29.78,SSW,212,4.0,4.0,74,0.00,,,0.16,Wunderground v.1.15,2013-09-19 22:06:00,
2013-09-19 23:16:00,52.9,45.5,29.78,WSW,242,3.0,7.0,76,0.00,,,0.16,Wunderground v.1.15,2013-09-19 22:16:00,
2013-09-19 23:21:00,53.0,46.0,29.78,WSW,242,4.0,4.0,77,0.00,,,0.16,Wunderground v.1.15,2013-09-19 22:21:00,
2013-09-19 23:26:00,53.0,46.3,29.78,SW,219,4.0,6.0,78,0.00,,,0.16,Wunderground v.1.15,2013-09-19 22:26:00,
2013-09-19 23:36:00,53.0,46.7,29.78,West,276,4.0,4.0,79,0.00,,,0.16,Wunderground v.1.15,2013-09-19 22:36:00,
2013-09-19 23:41:00,53.1,46.8,29.78,WSW,240,4.0,6.0,79,0.00,,,0.16,Wunderground v.1.15,2013-09-19 22:41:00,
2013-09-19 23:51:00,53.1,46.4,29.79,NW,325,4.0,4.0,78,0.00,,,0.17,Wunderground v.1.15,2013-09-19 22:51:00,
2013-09-19 23:56:00,53.0,46.3,29.79,WSW,248,3.0,4.0,78,0.00,,,0.17,Wunderground v.1.15,2013-09-19 22:56:00,